createdAt,value
2018-06-05T00:01:21.296Z,16.30
2018-06-05T00:03:49.536Z,15.37
2018-06-05T00:06:17.754Z,14.50
2018-06-05T00:08:45.978Z,15.27
2018-06-05T00:11:14.204Z,15.20
2018-06-05T00:13:42.424Z,15.40
2018-06-05T00:16:10.664Z,15.23
2018-06-05T00:18:38.881Z,15.07
2018-06-05T00:21:07.105Z,14.63
2018-06-05T00:23:35.325Z,14.03
2018-06-05T00:26:03.572Z,15.37
2018-06-05T00:28:31.794Z,15.10
2018-06-05T00:31:00.044Z,15.53
2018-06-05T00:33:28.270Z,15.97
2018-06-05T00:35:56.484Z,15.20
2018-06-05T00:38:24.736Z,15.67
2018-06-05T00:41:40.830Z,15.83
2018-06-05T00:44:08.812Z,14.43
2018-06-05T00:46:37.049Z,15.13
2018-06-05T00:49:05.276Z,15.13
2018-06-05T00:51:44.919Z,14.80
2018-06-05T00:54:13.160Z,15.70
2018-06-05T00:56:41.388Z,14.77
2018-06-05T00:59:09.673Z,15.80
2018-06-05T01:01:37.907Z,14.47
2018-06-05T01:04:06.138Z,14.60
2018-06-05T01:06:34.380Z,14.47
2018-06-05T01:09:02.608Z,15.53
2018-06-05T01:11:30.836Z,14.13
2018-06-05T01:13:59.069Z,15.67
2018-06-05T01:16:27.300Z,15.23
2018-06-05T01:18:55.536Z,14.90
2018-06-05T01:21:23.779Z,16.30
2018-06-05T01:23:52.012Z,14.97
2018-06-05T01:26:20.256Z,15.73
2018-06-05T01:28:48.485Z,16.03
2018-06-05T01:31:16.732Z,15.10
2018-06-05T01:33:44.960Z,16.80
2018-06-05T01:36:13.204Z,16.43
2018-06-05T01:38:41.427Z,16.27
2018-06-05T01:41:09.678Z,17.47
2018-06-05T01:43:37.918Z,16.03
2018-06-05T01:46:06.145Z,16.63
2018-06-05T01:48:34.389Z,16.27
2018-06-05T01:51:02.618Z,16.87
2018-06-05T01:53:30.841Z,17.27
2018-06-05T01:55:59.072Z,17.77
2018-06-05T01:58:27.292Z,18.37
2018-06-05T02:00:55.600Z,17.93
2018-06-05T02:03:23.829Z,17.17
2018-06-05T02:05:52.061Z,17.20
2018-06-05T02:08:20.472Z,16.50
2018-06-05T02:10:48.700Z,16.93
2018-06-05T02:13:16.928Z,16.90
2018-06-05T02:15:45.165Z,18.23
2018-06-05T02:18:13.401Z,18.13
2018-06-05T02:20:41.620Z,17.10
2018-06-05T02:23:09.848Z,17.10
2018-06-05T02:25:38.077Z,16.53
2018-06-05T02:28:06.306Z,16.23
2018-06-05T02:30:34.520Z,15.70
2018-06-05T02:33:02.737Z,17.30
2018-06-05T02:35:30.975Z,16.60
2018-06-05T02:37:59.193Z,17.27
2018-06-05T02:40:27.435Z,16.50
2018-06-05T02:42:55.673Z,18.20
2018-06-05T02:45:23.919Z,17.77
2018-06-05T02:47:52.134Z,18.40
2018-06-05T02:50:20.364Z,16.37
2018-06-05T02:52:48.592Z,17.40
2018-06-05T02:55:16.825Z,17.10
2018-06-05T02:57:45.049Z,19.30
2018-06-05T03:00:13.328Z,16.93
2018-06-05T03:02:41.563Z,16.20
2018-06-05T03:05:09.766Z,17.13
2018-06-05T03:07:37.976Z,16.57
2018-06-05T03:10:06.194Z,16.77
2018-06-05T03:12:34.396Z,17.30
2018-06-05T03:15:02.601Z,17.73
2018-06-05T03:17:30.599Z,17.00
2018-06-05T03:19:58.800Z,17.50
2018-06-05T03:22:27.011Z,18.20
2018-06-05T03:24:55.312Z,17.07
2018-06-05T03:27:23.533Z,19.47
2018-06-05T03:29:51.743Z,17.27
2018-06-05T03:32:19.960Z,17.03
2018-06-05T03:34:48.160Z,17.90
2018-06-05T03:37:16.486Z,17.57
2018-06-05T03:39:44.712Z,17.83
2018-06-05T03:42:13.288Z,18.07
2018-06-05T03:44:41.669Z,19.07
2018-06-05T03:47:09.939Z,18.37
2018-06-05T03:49:41.724Z,18.43
2018-06-05T03:52:10.628Z,18.27
2018-06-05T03:54:38.940Z,17.27
2018-06-05T03:57:07.245Z,17.40
2018-06-05T03:59:35.457Z,19.47
2018-06-05T04:02:04.815Z,19.27
2018-06-05T04:04:33.114Z,17.13
2018-06-05T04:07:01.365Z,17.47
2018-06-05T04:09:29.621Z,17.80
2018-06-05T04:11:57.897Z,18.30
2018-06-05T04:14:26.325Z,18.43
2018-06-05T04:16:54.568Z,19.47
2018-06-05T04:19:22.929Z,19.30
2018-06-05T04:21:51.173Z,17.60
2018-06-05T04:24:19.401Z,17.50
2018-06-05T04:26:47.721Z,18.20
2018-06-05T04:29:16.040Z,17.73
2018-06-05T04:31:44.265Z,17.33
2018-06-05T04:34:12.497Z,17.00
2018-06-05T04:36:40.725Z,20.03
2018-06-05T04:39:08.965Z,17.07
2018-06-05T04:41:37.209Z,16.90
2018-06-05T04:44:05.441Z,17.33
2018-06-05T04:46:33.670Z,17.33
2018-06-05T04:49:01.898Z,17.63
2018-06-05T04:51:30.166Z,17.57
2018-06-05T04:53:58.388Z,18.07
2018-06-05T04:56:26.797Z,18.83
2018-06-05T04:58:55.033Z,19.17
2018-06-05T05:01:23.345Z,19.00
2018-06-05T05:03:51.617Z,19.13
2018-06-05T05:06:19.928Z,18.87
2018-06-05T05:08:48.163Z,20.53
2018-06-05T05:11:16.434Z,19.77
2018-06-05T05:13:45.138Z,21.20
2018-06-05T05:16:13.389Z,18.70
2018-06-05T05:18:41.626Z,19.13
2018-06-05T05:21:09.877Z,19.47
2018-06-05T05:23:38.102Z,18.07
2018-06-05T05:26:06.356Z,19.13
2018-06-05T05:28:34.589Z,20.30
2018-06-05T05:31:02.831Z,20.00
2018-06-05T05:33:31.069Z,20.93
2018-06-05T05:35:59.320Z,19.43
2018-06-05T05:38:27.549Z,20.07
2018-06-05T05:40:55.828Z,19.03
2018-06-05T05:43:24.065Z,20.13
2018-06-05T05:45:52.292Z,19.33
2018-06-05T05:48:20.536Z,18.07
2018-06-05T05:50:48.766Z,17.77
2018-06-05T05:53:17.036Z,17.57
2018-06-05T05:55:45.305Z,16.93
2018-06-05T05:58:13.532Z,17.07
2018-06-05T06:00:41.746Z,15.77
2018-06-05T06:03:09.953Z,15.63
2018-06-05T06:05:38.161Z,17.03
2018-06-05T06:08:06.397Z,16.53
2018-06-05T06:10:34.656Z,15.47
2018-06-05T06:13:02.897Z,16.10
2018-06-05T06:15:31.136Z,13.83
2018-06-05T06:17:59.369Z,12.28
2018-06-05T06:20:27.780Z,13.83
2018-06-05T06:22:56.017Z,12.30
2018-06-05T06:25:24.285Z,14.65
2018-06-05T06:27:52.566Z,11.88
2018-06-05T06:30:20.799Z,12.78
2018-06-05T06:32:49.109Z,13.05
2018-06-05T06:35:17.361Z,11.93
2018-06-05T06:37:45.584Z,11.83
2018-06-05T06:40:13.827Z,12.20
2018-06-05T06:42:42.052Z,11.90
2018-06-05T06:45:10.281Z,10.75
2018-06-05T06:47:38.513Z,11.20
2018-06-05T06:50:06.753Z,12.80
2018-06-05T06:52:35.025Z,12.35
2018-06-05T06:55:03.281Z,12.33
2018-06-05T06:57:31.513Z,12.20
2018-06-05T06:59:59.737Z,11.70
2018-06-05T07:02:27.966Z,12.53
2018-06-05T07:04:56.216Z,12.50
2018-06-05T07:07:24.469Z,12.40
2018-06-05T07:09:52.701Z,13.25
2018-06-05T07:12:20.965Z,11.55
2018-06-05T07:14:49.158Z,10.88
2018-06-05T07:17:17.405Z,12.58
2018-06-05T07:19:45.633Z,12.93
2018-06-05T07:22:13.881Z,10.85
2018-06-05T07:24:42.133Z,11.80
2018-06-05T07:27:10.359Z,12.88
2018-06-05T07:29:38.590Z,11.65
2018-06-05T07:32:06.817Z,12.20
2018-06-05T07:34:35.049Z,10.72
2018-06-05T07:37:03.313Z,12.37
2018-06-05T07:39:31.550Z,12.00
2018-06-05T07:41:59.777Z,11.55
2018-06-05T07:44:28.039Z,12.90
2018-06-05T07:46:56.825Z,12.93
2018-06-05T07:49:25.059Z,11.45
2018-06-05T07:51:53.293Z,14.15
2018-06-05T07:54:21.521Z,12.25
2018-06-05T07:56:50.285Z,11.18
2018-06-05T07:59:18.520Z,11.60
2018-06-05T08:01:46.765Z,12.05
2018-06-05T08:04:26.861Z,13.58
2018-06-05T08:06:54.983Z,12.23
2018-06-05T08:09:23.224Z,11.50
2018-06-05T08:11:51.482Z,11.48
2018-06-05T08:14:19.680Z,13.00
2018-06-05T08:16:47.905Z,13.03
2018-06-05T08:19:16.128Z,12.50
2018-06-05T08:21:44.345Z,11.95
2018-06-05T08:24:12.601Z,10.53
2018-06-05T08:26:56.262Z,10.93
2018-06-05T08:29:25.367Z,12.07
2018-06-05T08:31:53.588Z,12.03
2018-06-05T08:34:21.555Z,9.85
2018-06-05T08:36:49.777Z,11.95
2018-06-05T08:39:18.007Z,11.12
2018-06-05T08:41:46.231Z,11.83
2018-06-05T08:44:14.448Z,10.98
2018-06-05T08:46:42.664Z,12.82
2018-06-05T08:49:10.884Z,13.83
2018-06-05T08:51:39.108Z,11.55
2018-06-05T08:54:07.346Z,11.12
2018-06-05T08:56:35.576Z,12.37
2018-06-05T08:59:03.812Z,11.88
2018-06-05T09:01:32.045Z,12.53
2018-06-05T09:04:00.272Z,11.25
2018-06-05T09:06:28.500Z,11.75
2018-06-05T09:08:56.732Z,12.05
2018-06-05T09:11:24.972Z,12.03
2018-06-05T09:13:53.213Z,11.43
2018-06-05T09:16:21.435Z,11.50
2018-06-05T09:18:49.666Z,10.48
2018-06-05T09:21:17.913Z,11.28
2018-06-05T09:23:46.138Z,10.60
2018-06-05T09:26:14.364Z,10.68
2018-06-05T09:28:42.621Z,10.43
2018-06-05T09:31:10.933Z,11.33
2018-06-05T09:33:39.161Z,11.45
2018-06-05T09:36:07.372Z,10.82
2018-06-05T09:38:35.595Z,12.13
2018-06-05T09:41:03.836Z,11.20
2018-06-05T09:43:32.057Z,12.23
2018-06-05T09:46:00.302Z,11.00
2018-06-05T09:48:28.521Z,13.03
2018-06-05T09:50:56.848Z,11.97
2018-06-05T09:53:25.149Z,12.82
2018-06-05T09:55:53.412Z,11.53
2018-06-05T09:58:21.892Z,11.88
2018-06-05T10:00:53.425Z,11.20
2018-06-05T10:03:21.981Z,11.48
2018-06-05T10:05:52.077Z,10.18
2018-06-05T10:08:20.301Z,10.98
2018-06-05T10:10:48.529Z,11.08
2018-06-05T10:13:16.756Z,10.98
2018-06-05T10:15:44.978Z,13.95
2018-06-05T10:18:13.208Z,11.43
2018-06-05T10:20:41.429Z,11.93
2018-06-05T10:23:09.652Z,11.65
2018-06-05T10:25:37.886Z,11.95
2018-06-05T10:28:06.125Z,13.80
2018-06-05T10:30:34.332Z,10.38
2018-06-05T10:33:02.560Z,11.40
2018-06-05T10:35:30.560Z,11.40
2018-06-05T10:37:58.767Z,9.70
2018-06-05T10:40:26.984Z,9.93
2018-06-05T10:42:55.205Z,10.20
2018-06-05T10:45:23.425Z,10.20
2018-06-05T10:47:51.636Z,9.43
2018-06-05T10:50:19.859Z,10.38
2018-06-05T10:52:48.084Z,10.25
2018-06-05T10:55:16.320Z,9.88
2018-06-05T10:57:44.553Z,10.23
2018-06-05T11:00:12.785Z,10.30
2018-06-05T11:02:41.006Z,10.82
2018-06-05T11:05:09.233Z,9.33
2018-06-05T11:07:37.448Z,8.83
2018-06-05T11:10:05.440Z,8.60
2018-06-05T11:12:33.645Z,9.48
2018-06-05T11:15:01.868Z,9.53
2018-06-05T11:17:30.085Z,9.13
2018-06-05T11:19:58.301Z,9.48
2018-06-05T11:22:26.512Z,9.73
2018-06-05T11:24:54.753Z,8.80
2018-06-05T11:27:22.980Z,8.68
2018-06-05T11:29:51.217Z,9.48
2018-06-05T11:32:19.433Z,9.53
2018-06-05T11:34:47.643Z,9.65
2018-06-05T11:37:15.889Z,9.05
2018-06-05T11:39:44.097Z,9.10
2018-06-05T11:42:12.092Z,9.45
2018-06-05T11:44:40.312Z,12.80
2018-06-05T11:47:08.529Z,8.88
2018-06-05T11:49:36.732Z,8.05
2018-06-05T11:52:04.951Z,9.13
2018-06-05T11:54:34.222Z,10.40
2018-06-05T11:57:02.448Z,8.23
2018-06-05T11:59:30.665Z,8.53
2018-06-05T12:01:58.878Z,8.18
2018-06-05T12:04:27.096Z,8.48
2018-06-05T12:06:55.317Z,8.33
2018-06-05T12:09:23.531Z,8.50
2018-06-05T12:11:51.749Z,8.40
2018-06-05T12:14:19.959Z,8.38
2018-06-05T12:16:48.180Z,7.78
2018-06-05T12:19:16.392Z,8.43
2018-06-05T12:21:44.613Z,7.72
2018-06-05T12:24:12.832Z,8.93
2018-06-05T12:26:41.069Z,8.28
2018-06-05T12:29:09.311Z,8.68
2018-06-05T12:31:37.636Z,8.65
2018-06-05T12:34:05.845Z,9.05
2018-06-05T12:36:34.063Z,8.40
2018-06-05T12:39:02.274Z,8.63
2018-06-05T12:41:30.485Z,9.15
2018-06-05T12:43:58.680Z,9.03
2018-06-05T12:46:26.893Z,8.50
2018-06-05T12:48:55.781Z,9.85
2018-06-05T12:51:24.021Z,8.20
2018-06-05T12:53:52.268Z,9.60
2018-06-05T12:56:20.489Z,9.43
2018-06-05T12:58:48.712Z,8.83
2018-06-05T13:01:16.918Z,8.73
2018-06-05T13:03:45.136Z,10.60
2018-06-05T13:06:13.357Z,8.45
2018-06-05T13:08:41.580Z,8.38
2018-06-05T13:11:09.802Z,8.83
2018-06-05T13:13:38.028Z,9.33
2018-06-05T13:16:06.240Z,8.23
2018-06-05T13:18:34.453Z,8.33
2018-06-05T13:21:02.666Z,8.68
2018-06-05T13:23:30.886Z,8.50
2018-06-05T13:25:59.114Z,8.55
2018-06-05T13:28:27.481Z,8.20
2018-06-05T13:30:55.733Z,8.05
2018-06-05T13:33:24.020Z,7.97
2018-06-05T13:35:52.268Z,8.70
2018-06-05T13:38:20.757Z,9.55
2018-06-05T13:40:48.956Z,8.20
2018-06-05T13:43:18.604Z,7.50
2018-06-05T13:45:47.476Z,7.72
2018-06-05T13:48:15.699Z,8.40
2018-06-05T13:50:43.925Z,7.40
2018-06-05T13:53:12.145Z,7.60
2018-06-05T13:55:40.396Z,7.58
2018-06-05T13:58:09.374Z,7.30
2018-06-05T14:00:38.128Z,7.83
2018-06-05T14:03:06.328Z,7.67
2018-06-05T14:05:34.582Z,7.15
2018-06-05T14:08:02.801Z,8.38
2018-06-05T14:10:30.808Z,7.87
2018-06-05T14:12:59.816Z,6.92
2018-06-05T14:15:28.068Z,7.70
2018-06-05T14:17:57.864Z,6.90
2018-06-05T14:20:26.461Z,7.08
2018-06-05T14:22:56.336Z,8.23
2018-06-05T14:25:25.057Z,7.62
2018-06-05T14:27:53.284Z,8.98
2018-06-05T14:30:21.505Z,7.55
2018-06-05T14:32:50.452Z,8.90
2018-06-05T14:35:18.905Z,7.33
2018-06-05T14:37:47.364Z,7.65
2018-06-05T14:40:15.584Z,6.78
2018-06-05T14:42:43.813Z,7.87
2018-06-05T14:45:12.132Z,10.18
2018-06-05T14:47:40.785Z,16.05
2018-06-05T14:50:09.084Z,20.45
2018-06-05T14:52:37.300Z,19.10
2018-06-05T14:55:05.516Z,19.45
2018-06-05T14:57:34.017Z,21.85
2018-06-05T15:00:02.245Z,22.50
2018-06-05T15:02:33.809Z,21.85
2018-06-05T15:05:02.045Z,20.68
2018-06-05T15:07:30.302Z,20.60
2018-06-05T15:09:59.824Z,23.47
2018-06-05T15:12:27.923Z,23.98
2018-06-05T15:14:56.169Z,20.68
2018-06-05T15:17:24.417Z,22.17
2018-06-05T15:19:52.393Z,21.70
2018-06-05T15:22:20.608Z,20.05
2018-06-05T15:24:48.856Z,18.98
2018-06-05T15:27:17.077Z,22.67
2018-06-05T15:29:45.294Z,18.95
2018-06-05T15:32:13.533Z,21.80
2018-06-05T15:34:41.745Z,18.62
2018-06-05T15:37:09.997Z,17.98
2018-06-05T15:39:38.209Z,19.05
2018-06-05T15:42:06.417Z,19.27
2018-06-05T15:44:34.644Z,20.43
2018-06-05T15:47:02.863Z,19.35
2018-06-05T15:49:31.092Z,17.48
2018-06-05T15:51:59.329Z,17.57
2018-06-05T15:54:27.572Z,16.17
2018-06-05T15:56:55.810Z,17.62
2018-06-05T15:59:24.152Z,17.65
2018-06-05T16:01:52.200Z,19.50
2018-06-05T16:04:20.459Z,16.90
2018-06-05T16:06:49.527Z,16.15
2018-06-05T16:09:19.293Z,17.05
2018-06-05T16:11:47.431Z,18.02
2018-06-05T16:14:15.672Z,18.07
2018-06-05T16:16:43.897Z,18.27
2018-06-05T16:19:12.244Z,17.23
2018-06-05T16:21:40.621Z,18.37
2018-06-05T16:24:09.400Z,19.70
2018-06-05T16:26:37.733Z,17.50
2018-06-05T16:29:06.045Z,17.13
2018-06-05T16:31:34.273Z,20.82
2018-06-05T16:34:02.561Z,15.90
2018-06-05T16:36:30.881Z,16.47
2018-06-05T16:38:59.136Z,21.60
2018-06-05T16:41:27.561Z,21.37
2018-06-05T16:43:56.298Z,17.20
2018-06-05T16:46:25.098Z,15.10
2018-06-05T16:48:53.667Z,15.40
2018-06-05T16:51:21.889Z,13.97
2018-06-05T16:53:50.952Z,13.77
2018-06-05T16:56:19.509Z,14.00
2018-06-05T16:58:47.877Z,14.67
2018-06-05T17:01:16.091Z,12.37
2018-06-05T17:03:44.317Z,12.37
2018-06-05T17:06:12.517Z,12.80
2018-06-05T17:08:40.757Z,11.77
2018-06-05T17:11:09.147Z,12.20
2018-06-05T17:13:37.349Z,14.90
2018-06-05T17:16:05.550Z,12.63
2018-06-05T17:18:33.773Z,11.27
2018-06-05T17:21:02.005Z,12.50
2018-06-05T17:23:30.229Z,14.30
2018-06-05T17:25:58.554Z,14.30
2018-06-05T17:28:26.757Z,15.53
2018-06-05T17:30:55.081Z,13.13
2018-06-05T17:33:25.822Z,16.10
2018-06-05T17:35:54.113Z,13.90
2018-06-05T17:38:22.417Z,13.13
2018-06-05T17:40:50.652Z,13.33
2018-06-05T17:43:18.848Z,14.87
2018-06-05T17:45:47.121Z,13.23
2018-06-05T17:48:15.350Z,13.50
2018-06-05T17:50:43.883Z,14.57
2018-06-05T17:53:12.097Z,14.60
2018-06-05T17:55:40.288Z,13.93
2018-06-05T17:58:08.620Z,13.00
2018-06-05T18:00:36.924Z,13.97
2018-06-05T18:03:05.242Z,14.27
2018-06-05T18:05:33.508Z,14.03
2018-06-05T18:08:01.854Z,15.30
2018-06-05T18:10:30.520Z,15.63
2018-06-05T18:12:58.813Z,14.73
2018-06-05T18:15:27.045Z,14.23
2018-06-05T18:17:55.243Z,15.73
2018-06-05T18:20:23.622Z,15.27
2018-06-05T18:22:51.883Z,15.40
2018-06-05T18:25:20.213Z,14.63
2018-06-05T18:27:48.602Z,15.33
2018-06-05T18:30:16.823Z,14.13
2018-06-05T18:32:45.129Z,14.70
2018-06-05T18:35:13.413Z,15.50
2018-06-05T18:37:41.749Z,17.33
2018-06-05T18:40:10.070Z,16.53
2018-06-05T18:42:38.739Z,16.33
2018-06-05T18:45:07.169Z,15.53
2018-06-05T18:47:35.388Z,15.60
2018-06-05T18:50:03.737Z,15.47
2018-06-05T18:52:32.859Z,16.87
2018-06-05T18:55:01.545Z,14.87
2018-06-05T18:57:29.833Z,15.10
2018-06-05T18:59:57.813Z,15.27
2018-06-05T19:02:26.121Z,14.77
2018-06-05T19:04:54.381Z,16.07
2018-06-05T19:07:22.614Z,15.77
2018-06-05T19:09:50.849Z,15.40
2018-06-05T19:12:20.025Z,16.00
2018-06-05T19:14:48.234Z,16.37
2018-06-05T19:17:16.580Z,17.70
2018-06-05T19:19:44.837Z,15.53
2018-06-05T19:22:13.085Z,15.27
2018-06-05T19:24:41.718Z,14.43
2018-06-05T19:27:10.058Z,14.67
2018-06-05T19:29:38.472Z,16.60
2018-06-05T19:32:06.553Z,14.13
2018-06-05T19:34:34.806Z,14.83
2018-06-05T19:37:03.032Z,12.87
2018-06-05T19:39:31.285Z,14.83
2018-06-05T19:41:59.566Z,13.27
2018-06-05T19:44:27.789Z,12.80
2018-06-05T19:46:56.898Z,14.00
2018-06-05T19:49:25.164Z,14.00
2018-06-05T19:51:54.031Z,12.80
2018-06-05T19:54:22.986Z,13.73
2018-06-05T19:56:51.281Z,12.43
2018-06-05T19:59:19.495Z,13.33
2018-06-05T20:01:47.476Z,12.80
2018-06-05T20:04:15.712Z,12.77
2018-06-05T20:06:43.919Z,11.97
2018-06-05T20:09:12.116Z,12.70
2018-06-05T20:11:40.328Z,13.00
2018-06-05T20:14:08.574Z,13.50
2018-06-05T20:16:37.193Z,12.23
2018-06-05T20:19:05.477Z,12.47
2018-06-05T20:21:33.773Z,14.17
2018-06-05T20:24:02.113Z,12.17
2018-06-05T20:26:30.462Z,12.80
2018-06-05T20:28:58.713Z,12.43
2018-06-05T20:31:27.044Z,11.97
2018-06-05T20:33:55.893Z,13.47
2018-06-05T20:36:24.769Z,12.47
2018-06-05T20:38:53.048Z,12.30
2018-06-05T20:41:22.108Z,12.27
2018-06-05T20:43:50.382Z,12.90
2018-06-05T20:46:18.628Z,13.97
2018-06-05T20:48:47.259Z,13.33
2018-06-05T20:51:16.045Z,13.13
2018-06-05T20:53:44.325Z,14.10
2018-06-05T20:56:12.545Z,16.87
2018-06-05T20:58:40.785Z,13.27
2018-06-05T21:01:09.053Z,14.93
2018-06-05T21:03:37.285Z,14.07
2018-06-05T21:06:05.693Z,13.90
2018-06-05T21:08:33.928Z,14.57
2018-06-05T21:11:02.165Z,14.13
2018-06-05T21:13:31.412Z,13.93
2018-06-05T21:16:00.619Z,14.53
2018-06-05T21:18:28.921Z,14.07
2018-06-05T21:20:57.269Z,16.07
2018-06-05T21:23:25.564Z,15.83
2018-06-05T21:25:53.801Z,17.40
2018-06-05T21:28:22.033Z,17.33
2018-06-05T21:30:50.282Z,17.00
2018-06-05T21:33:18.517Z,17.50
2018-06-05T21:35:46.848Z,18.90
2018-06-05T21:38:15.102Z,19.40
2018-06-05T21:40:43.328Z,19.53
2018-06-05T21:43:11.573Z,18.40
2018-06-05T21:45:39.802Z,19.20
2018-06-05T21:48:08.042Z,18.67
2018-06-05T21:50:36.268Z,18.83
2018-06-05T21:53:06.139Z,19.67
2018-06-05T21:55:34.385Z,18.97
2018-06-05T21:58:02.612Z,19.93
2018-06-05T22:00:30.933Z,20.50
2018-06-05T22:02:59.145Z,22.20
2018-06-05T22:05:27.344Z,20.40
2018-06-05T22:07:56.165Z,21.00
2018-06-05T22:10:24.425Z,20.40
2018-06-05T22:12:52.644Z,21.53
2018-06-05T22:15:20.889Z,22.50
2018-06-05T22:17:49.260Z,22.40
2018-06-05T22:20:18.644Z,22.03
2018-06-05T22:22:46.872Z,22.63
2018-06-05T22:25:15.224Z,22.47
2018-06-05T22:27:43.456Z,22.87
2018-06-05T22:30:11.674Z,23.10
2018-06-05T22:32:39.912Z,23.00
2018-06-05T22:35:08.149Z,22.53
2018-06-05T22:37:36.372Z,23.73
2018-06-05T22:40:06.349Z,23.50
2018-06-05T22:42:34.632Z,22.50
2018-06-05T22:45:02.871Z,23.97
2018-06-05T22:47:31.125Z,25.23
2018-06-05T22:49:59.359Z,25.50
2018-06-05T22:52:27.592Z,27.10
2018-06-05T22:54:55.856Z,25.40
2018-06-05T22:57:24.099Z,27.13
2018-06-05T22:59:52.305Z,27.97
2018-06-05T23:02:20.505Z,28.30
2018-06-05T23:04:48.701Z,28.90
2018-06-05T23:07:17.096Z,29.93
2018-06-05T23:09:45.296Z,29.87
2018-06-05T23:12:13.601Z,31.83
2018-06-05T23:14:41.804Z,31.27
2018-06-05T23:17:10.026Z,32.23
2018-06-05T23:19:38.229Z,31.83
2018-06-05T23:22:06.435Z,31.57
2018-06-05T23:24:34.637Z,30.97
2018-06-05T23:27:02.833Z,32.07
2018-06-05T23:29:31.040Z,31.23
2018-06-05T23:31:59.241Z,31.23
2018-06-05T23:34:27.436Z,31.07
2018-06-05T23:36:55.632Z,32.27
2018-06-05T23:39:23.833Z,32.83
2018-06-05T23:41:52.064Z,31.27
2018-06-05T23:44:20.286Z,33.37
2018-06-05T23:46:48.486Z,33.93
2018-06-05T23:49:16.690Z,33.10
2018-06-05T23:51:44.889Z,33.40
2018-06-05T23:54:13.112Z,35.47
2018-06-05T23:56:42.493Z,35.97
2018-06-05T23:59:10.700Z,37.33
